createdAt,value
2022-08-16T00:00:48.949Z,13.70
2022-08-16T00:03:28.760Z,13.70
2022-08-16T00:06:08.119Z,14.20
2022-08-16T00:08:40.979Z,13.80
2022-08-16T00:11:16.751Z,15.20
2022-08-16T00:13:54.293Z,14.50
2022-08-16T00:17:01.661Z,14.60
2022-08-16T00:19:20.162Z,14.90
2022-08-16T00:21:54.478Z,15.40
2022-08-16T00:24:31.097Z,14.30
2022-08-16T00:27:04.419Z,13.80
2022-08-16T00:29:34.759Z,14.00
2022-08-16T00:32:07.033Z,13.90
2022-08-16T00:34:44.673Z,14.70
2022-08-16T00:37:57.869Z,13.70
2022-08-16T00:40:34.769Z,15.70
2022-08-16T00:43:12.057Z,15.90
2022-08-16T00:46:00.011Z,15.80
2022-08-16T00:48:43.718Z,16.30
2022-08-16T00:51:17.528Z,15.70
2022-08-16T00:53:49.215Z,16.50
2022-08-16T00:56:57.780Z,16.50
2022-08-16T00:59:15.208Z,15.40
2022-08-16T01:02:30.525Z,16.00
2022-08-16T01:05:10.434Z,16.00
2022-08-16T01:07:50.690Z,16.50
2022-08-16T01:10:32.201Z,17.70
2022-08-16T01:13:08.003Z,16.50
2022-08-16T01:15:43.055Z,16.50
2022-08-16T01:18:40.242Z,17.60
2022-08-16T01:21:24.174Z,16.80
2022-08-16T01:24:52.092Z,17.60
2022-08-16T01:27:08.946Z,16.90
2022-08-16T01:29:58.460Z,17.10
2022-08-16T01:32:34.310Z,17.50
2022-08-16T01:35:17.055Z,17.60
2022-08-16T01:37:53.078Z,17.10
2022-08-16T01:40:28.819Z,16.10
2022-08-16T01:42:59.184Z,17.80
2022-08-16T01:45:40.721Z,17.90
2022-08-16T01:48:19.264Z,17.80
2022-08-16T01:51:09.281Z,17.50
2022-08-16T01:53:42.834Z,18.30
2022-08-16T01:56:23.453Z,17.90
2022-08-16T01:58:57.934Z,17.30
2022-08-16T02:01:29.471Z,18.20
2022-08-16T02:06:46.695Z,18.00
2022-08-16T02:09:22.624Z,17.80
2022-08-16T02:11:57.246Z,18.60
2022-08-16T02:14:30.823Z,18.00
2022-08-16T02:17:02.893Z,17.60
2022-08-16T02:19:59.506Z,17.40
2022-08-16T02:22:35.167Z,17.20
2022-08-16T02:25:52.121Z,17.60
2022-08-16T02:28:19.368Z,15.80
2022-08-16T02:30:51.995Z,16.30
2022-08-16T02:33:24.417Z,16.30
2022-08-16T02:35:58.400Z,17.50
2022-08-16T02:38:31.472Z,16.10
2022-08-16T02:41:07.274Z,15.60
2022-08-16T02:43:39.949Z,16.00
2022-08-16T02:46:11.188Z,16.00
2022-08-16T02:48:49.352Z,15.30
2022-08-16T02:51:23.517Z,16.50
2022-08-16T02:53:53.965Z,17.10
2022-08-16T02:59:02.774Z,15.90
2022-08-16T03:01:42.325Z,16.40
2022-08-16T03:04:39.565Z,17.30
2022-08-16T03:07:10.178Z,17.40
2022-08-16T03:09:45.166Z,17.10
2022-08-16T03:12:18.886Z,16.30
2022-08-16T03:14:49.767Z,16.50
2022-08-16T03:17:22.546Z,17.90
2022-08-16T03:20:02.768Z,18.60
2022-08-16T03:22:39.333Z,17.80
2022-08-16T03:25:17.166Z,17.80
2022-08-16T03:27:55.503Z,17.50
2022-08-16T03:30:29.863Z,17.50
2022-08-16T03:33:05.714Z,17.70
2022-08-16T03:35:42.894Z,17.10
2022-08-16T03:38:35.462Z,17.20
2022-08-16T03:41:17.031Z,16.80
2022-08-16T03:43:58.894Z,17.70
2022-08-16T03:46:45.066Z,17.60
2022-08-16T03:49:23.264Z,18.10
2022-08-16T03:52:07.844Z,17.00
2022-08-16T03:54:38.456Z,17.00
2022-08-16T03:57:24.624Z,17.70
2022-08-16T04:00:11.897Z,18.10
2022-08-16T04:03:06.977Z,17.50
2022-08-16T04:05:44.248Z,16.20
2022-08-16T04:08:23.052Z,17.20
2022-08-16T04:10:58.011Z,17.70
2022-08-16T04:14:00.407Z,17.70
2022-08-16T04:16:26.223Z,18.80
2022-08-16T04:19:02.309Z,18.50
2022-08-16T04:21:45.737Z,18.80
2022-08-16T04:24:17.605Z,19.60
2022-08-16T04:26:47.896Z,19.00
2022-08-16T04:29:23.636Z,18.50
2022-08-16T04:31:57.958Z,18.60
2022-08-16T04:34:36.766Z,18.80
2022-08-16T04:37:08.544Z,20.00
2022-08-16T04:39:46.629Z,19.20
2022-08-16T04:42:26.535Z,18.40
2022-08-16T04:45:02.050Z,20.80
2022-08-16T04:47:33.408Z,19.00
2022-08-16T04:50:09.046Z,17.90
2022-08-16T04:52:40.246Z,20.90
2022-08-16T04:55:15.371Z,20.70
2022-08-16T04:57:53.467Z,19.60
2022-08-16T05:00:32.933Z,19.30
2022-08-16T05:03:15.323Z,19.00
2022-08-16T05:05:55.850Z,19.40
2022-08-16T05:08:31.342Z,16.00
2022-08-16T05:11:11.086Z,17.10
2022-08-16T05:13:43.057Z,18.10
2022-08-16T05:16:23.100Z,19.50
2022-08-16T05:19:01.880Z,19.50
2022-08-16T05:21:38.464Z,19.40
2022-08-16T05:24:10.852Z,19.90
2022-08-16T05:26:43.127Z,19.00
2022-08-16T05:29:20.616Z,20.00
2022-08-16T05:32:32.798Z,18.80
2022-08-16T05:34:58.736Z,19.10
2022-08-16T05:37:39.502Z,19.90
2022-08-16T05:40:14.016Z,17.70
2022-08-16T05:42:46.163Z,19.50
2022-08-16T05:45:21.845Z,19.60
2022-08-16T05:48:00.025Z,19.50
2022-08-16T05:50:41.600Z,19.50
2022-08-16T05:53:11.908Z,19.00
2022-08-16T05:55:52.787Z,20.30
2022-08-16T05:58:31.558Z,20.20
2022-08-16T06:01:04.004Z,20.40
2022-08-16T06:03:36.666Z,20.70
2022-08-16T06:06:13.126Z,22.40
2022-08-16T06:08:57.946Z,22.30
2022-08-16T06:11:28.436Z,22.90
2022-08-16T06:14:01.766Z,21.40
2022-08-16T06:16:50.718Z,21.90
2022-08-16T06:19:23.684Z,20.60
2022-08-16T06:22:02.067Z,21.50
2022-08-16T06:24:54.217Z,22.50
2022-08-16T06:27:22.905Z,21.80
2022-08-16T06:29:53.496Z,22.70
2022-08-16T06:32:27.152Z,21.20
2022-08-16T06:35:02.667Z,21.60
2022-08-16T06:37:37.317Z,21.50
2022-08-16T06:40:12.867Z,21.20
2022-08-16T06:42:57.190Z,22.70
2022-08-16T06:45:46.736Z,21.60
2022-08-16T06:48:32.750Z,21.80
2022-08-16T06:51:06.733Z,20.70
2022-08-16T06:53:37.890Z,21.80
2022-08-16T06:56:14.622Z,22.00
2022-08-16T06:59:02.025Z,22.30
2022-08-16T07:01:43.404Z,21.50
2022-08-16T07:04:31.937Z,21.20
2022-08-16T07:07:12.343Z,20.40
2022-08-16T07:09:44.735Z,21.70
2022-08-16T07:12:15.402Z,20.20
2022-08-16T07:14:48.848Z,20.30
2022-08-16T07:20:03.381Z,19.40
2022-08-16T07:22:58.999Z,20.40
2022-08-16T07:25:48.518Z,19.40
2022-08-16T07:28:24.205Z,18.70
2022-08-16T07:30:55.965Z,19.80
2022-08-16T07:33:51.212Z,18.90
2022-08-16T07:36:28.934Z,19.40
2022-08-16T07:38:59.415Z,19.50
2022-08-16T07:41:30.807Z,18.20
2022-08-16T07:44:03.426Z,18.70
2022-08-16T07:46:47.843Z,18.50
2022-08-16T07:49:25.855Z,16.90
2022-08-16T07:52:02.576Z,18.10
2022-08-16T07:54:53.120Z,16.90
2022-08-16T07:57:24.432Z,16.70
2022-08-16T07:59:57.137Z,16.80
2022-08-16T08:02:36.556Z,18.20
2022-08-16T08:05:08.825Z,15.50
2022-08-16T08:07:45.287Z,15.30
2022-08-16T08:10:29.204Z,14.20
2022-08-16T08:13:02.218Z,13.50
2022-08-16T08:15:34.530Z,12.60
2022-08-16T08:18:30.201Z,11.80
2022-08-16T08:20:59.452Z,12.30
2022-08-16T08:23:36.667Z,12.80
2022-08-16T08:26:17.484Z,12.20
2022-08-16T08:28:48.095Z,10.90
2022-08-16T08:31:20.614Z,11.90
2022-08-16T08:33:51.827Z,11.60
2022-08-16T08:36:33.497Z,9.60
2022-08-16T08:39:12.715Z,9.60
2022-08-16T08:41:46.490Z,10.10
2022-08-16T08:44:28.631Z,9.60
2022-08-16T08:47:10.957Z,10.00
2022-08-16T08:49:50.358Z,10.00
2022-08-16T08:52:34.171Z,9.80
2022-08-16T08:55:14.527Z,9.60
2022-08-16T08:57:51.831Z,9.10
2022-08-16T09:00:51.259Z,9.30
2022-08-16T09:03:26.037Z,10.50
2022-08-16T09:05:59.103Z,8.90
2022-08-16T09:08:32.278Z,10.30
2022-08-16T09:11:08.995Z,10.10
2022-08-16T09:13:47.091Z,10.60
2022-08-16T09:17:01.745Z,8.00
2022-08-16T09:19:09.996Z,8.80
2022-08-16T09:21:40.315Z,8.30
2022-08-16T09:24:12.374Z,7.90
2022-08-16T09:27:02.725Z,7.90
2022-08-16T09:29:44.691Z,8.30
2022-08-16T09:32:28.795Z,8.90
2022-08-16T09:35:01.804Z,8.90
2022-08-16T09:37:39.824Z,8.60
2022-08-16T09:40:32.635Z,8.70
2022-08-16T09:43:07.581Z,8.50
2022-08-16T09:45:41.168Z,9.10
2022-08-16T09:48:44.294Z,9.00
2022-08-16T09:51:11.288Z,9.40
2022-08-16T09:53:43.845Z,10.20
2022-08-16T09:56:28.476Z,9.70
2022-08-16T09:59:07.767Z,9.30
2022-08-16T10:01:43.512Z,9.50
2022-08-16T10:04:34.308Z,9.40
2022-08-16T10:07:11.868Z,11.50
2022-08-16T10:09:54.526Z,10.90
2022-08-16T10:12:47.051Z,10.50
2022-08-16T10:15:30.262Z,10.60
2022-08-16T10:18:40.997Z,9.80
2022-08-16T10:20:51.764Z,11.00
2022-08-16T10:23:22.596Z,10.40
2022-08-16T10:27:18.285Z,9.00
2022-08-16T10:28:44.128Z,9.80
2022-08-16T10:31:43.509Z,9.80
2022-08-16T10:34:04.041Z,9.30
2022-08-16T10:36:38.721Z,8.90
2022-08-16T10:39:09.696Z,9.50
2022-08-16T10:41:39.525Z,8.80
2022-08-16T10:44:09.489Z,8.80
2022-08-16T10:46:41.898Z,9.30
2022-08-16T10:52:02.755Z,8.80
2022-08-16T10:54:58.658Z,8.50
2022-08-16T10:57:27.427Z,8.10
2022-08-16T11:00:05.864Z,8.10
2022-08-16T11:03:41.822Z,7.20
2022-08-16T11:06:00.042Z,7.00
2022-08-16T11:08:35.581Z,7.90
2022-08-16T11:11:12.778Z,8.90
2022-08-16T11:14:00.025Z,8.30
2022-08-16T11:19:25.964Z,8.60
2022-08-16T11:22:38.732Z,8.40
2022-08-16T11:25:11.903Z,8.20
2022-08-16T11:27:38.486Z,8.20
2022-08-16T11:30:12.851Z,9.40
2022-08-16T11:32:50.362Z,9.00
2022-08-16T11:38:46.512Z,8.80
2022-08-16T11:41:08.464Z,8.00
2022-08-16T11:43:41.918Z,8.40
2022-08-16T11:46:45.673Z,8.00
2022-08-16T11:49:12.683Z,10.30
2022-08-16T11:51:45.026Z,8.70
2022-08-16T11:54:20.979Z,8.80
2022-08-16T11:56:57.197Z,7.80
2022-08-16T11:59:29.915Z,7.90
2022-08-16T12:02:04.375Z,7.60
2022-08-16T12:04:53.444Z,7.60
2022-08-16T12:07:24.088Z,6.80
2022-08-16T12:09:54.947Z,6.80
2022-08-16T12:12:28.517Z,6.90
2022-08-16T12:15:00.222Z,6.90
2022-08-16T12:17:31.511Z,7.20
2022-08-16T12:20:04.834Z,6.70
2022-08-16T12:22:36.715Z,6.80
2022-08-16T12:25:07.997Z,6.40
2022-08-16T12:27:39.416Z,6.60
2022-08-16T12:30:26.352Z,7.20
2022-08-16T12:33:03.073Z,6.90
2022-08-16T12:35:35.266Z,6.80
2022-08-16T12:38:37.973Z,7.30
2022-08-16T12:40:57.914Z,7.30
2022-08-16T12:43:31.227Z,7.00
2022-08-16T12:46:02.098Z,7.60
2022-08-16T12:48:52.770Z,7.00
2022-08-16T12:51:57.606Z,7.20
2022-08-16T12:54:21.869Z,7.90
2022-08-16T12:56:52.818Z,7.30
2022-08-16T13:00:06.260Z,7.00
2022-08-16T13:03:09.055Z,7.90
2022-08-16T13:05:45.088Z,7.30
2022-08-16T13:08:30.911Z,7.20
2022-08-16T13:11:04.207Z,6.80
2022-08-16T13:13:34.962Z,7.30
2022-08-16T13:16:15.444Z,7.70
2022-08-16T13:18:51.655Z,7.50
2022-08-16T13:21:24.071Z,6.10
2022-08-16T13:23:55.852Z,5.10
2022-08-16T13:26:26.817Z,6.60
2022-08-16T13:28:56.525Z,6.60
2022-08-16T13:31:26.682Z,7.60
2022-08-16T13:33:58.649Z,8.60
2022-08-16T13:39:25.419Z,8.60
2022-08-16T13:46:16.043Z,8.60
2022-08-16T13:48:55.906Z,11.20
2022-08-16T13:51:55.378Z,12.30
2022-08-16T13:54:31.362Z,10.30
2022-08-16T13:57:02.228Z,10.40
2022-08-16T14:00:34.207Z,12.40
2022-08-16T14:04:26.222Z,10.70
2022-08-16T14:08:10.257Z,6.70
2022-08-16T14:11:39.679Z,6.40
2022-08-16T14:18:15.576Z,6.50
2022-08-16T14:20:48.754Z,6.70
2022-08-16T14:23:23.700Z,6.80
2022-08-16T14:28:25.905Z,5.80
2022-08-16T14:30:56.295Z,6.20
2022-08-16T14:33:26.180Z,6.60
2022-08-16T14:36:01.820Z,6.70
2022-08-16T14:38:39.379Z,7.70
2022-08-16T14:41:10.306Z,6.80
2022-08-16T14:43:40.386Z,6.80
2022-08-16T14:46:10.151Z,7.60
2022-08-16T14:48:40.653Z,7.80
2022-08-16T14:51:11.202Z,9.20
2022-08-16T14:53:45.457Z,8.50
2022-08-16T14:56:38.119Z,8.70
2022-08-16T14:59:05.504Z,10.20
2022-08-16T15:01:58.213Z,9.50
2022-08-16T15:04:39.568Z,10.00
2022-08-16T15:07:13.922Z,8.90
2022-08-16T15:10:01.207Z,10.00
2022-08-16T15:12:34.004Z,10.60
2022-08-16T15:15:12.907Z,10.50
2022-08-16T15:17:56.625Z,9.40
2022-08-16T15:20:29.848Z,8.90
2022-08-16T15:25:32.873Z,9.10
2022-08-16T15:28:06.074Z,8.80
2022-08-16T15:30:57.014Z,9.40
2022-08-16T15:33:32.582Z,9.70
2022-08-16T15:36:05.760Z,9.90
2022-08-16T15:39:05.538Z,10.70
2022-08-16T15:41:49.280Z,11.10
2022-08-16T15:44:23.097Z,11.70
2022-08-16T15:46:58.835Z,9.50
2022-08-16T15:49:38.004Z,9.60
2022-08-16T15:52:20.581Z,11.20
2022-08-16T15:54:53.414Z,10.30
2022-08-16T15:57:36.945Z,10.60
2022-08-16T16:00:15.650Z,11.10
2022-08-16T16:02:46.374Z,10.40
2022-08-16T16:05:22.406Z,10.80
2022-08-16T16:07:56.242Z,11.50
2022-08-16T16:10:29.429Z,11.00
2022-08-16T16:13:20.968Z,12.10
2022-08-16T16:18:25.634Z,10.00
2022-08-16T16:21:00.994Z,9.40
2022-08-16T16:23:34.945Z,8.50
2022-08-16T16:26:07.487Z,8.40
2022-08-16T16:29:05.576Z,8.50
2022-08-16T16:31:28.847Z,9.60
2022-08-16T16:34:08.293Z,9.30
2022-08-16T16:36:41.373Z,9.20
2022-08-16T16:39:21.923Z,8.80
2022-08-16T16:41:53.356Z,10.00
2022-08-16T16:44:32.087Z,9.30
2022-08-16T16:47:04.150Z,9.90
2022-08-16T16:49:33.920Z,8.70
2022-08-16T16:52:07.221Z,9.20
2022-08-16T16:54:37.386Z,9.30
2022-08-16T16:57:27.855Z,9.60
2022-08-16T16:59:57.743Z,9.60
2022-08-16T17:02:41.487Z,10.60
2022-08-16T17:05:18.214Z,10.20
2022-08-16T17:07:49.607Z,9.90
2022-08-16T17:10:46.045Z,10.00
2022-08-16T17:13:10.183Z,10.60
2022-08-16T17:15:39.893Z,10.90
2022-08-16T17:19:02.024Z,10.70
2022-08-16T17:20:59.784Z,10.20
2022-08-16T17:23:58.897Z,10.40
2022-08-16T17:26:19.754Z,11.60
2022-08-16T17:28:59.934Z,10.20
2022-08-16T17:31:34.745Z,10.10
2022-08-16T17:34:30.343Z,10.70
2022-08-16T17:37:05.251Z,10.30
2022-08-16T17:39:57.274Z,11.10
2022-08-16T17:42:31.485Z,10.80
2022-08-16T17:45:04.119Z,11.70
2022-08-16T17:50:06.876Z,10.60
2022-08-16T17:52:49.411Z,11.00
2022-08-16T17:55:25.705Z,12.40
2022-08-16T17:57:59.959Z,14.10
2022-08-16T18:00:32.558Z,15.60
2022-08-16T18:03:06.114Z,15.10
2022-08-16T18:05:41.906Z,14.30
2022-08-16T18:08:14.439Z,14.10
2022-08-16T18:10:47.066Z,16.00
2022-08-16T18:13:18.507Z,15.40
2022-08-16T18:15:51.247Z,14.60
2022-08-16T18:18:23.936Z,14.90
2022-08-16T18:21:13.535Z,15.90
2022-08-16T18:23:43.222Z,16.90
2022-08-16T18:26:15.785Z,15.70
2022-08-16T18:28:47.184Z,13.30
2022-08-16T18:31:18.996Z,12.70
2022-08-16T18:33:54.719Z,12.30
2022-08-16T18:36:28.786Z,12.20
2022-08-16T18:38:59.442Z,10.90
2022-08-16T18:41:32.144Z,11.50
2022-08-16T18:44:25.566Z,12.10
2022-08-16T18:46:55.140Z,11.90
2022-08-16T18:49:27.574Z,11.90
2022-08-16T18:52:00.871Z,11.40
2022-08-16T18:54:33.357Z,11.40
2022-08-16T18:57:08.037Z,11.80
2022-08-16T18:59:39.708Z,10.20
2022-08-16T19:02:09.563Z,10.80
2022-08-16T19:04:59.955Z,10.40
2022-08-16T19:07:31.593Z,11.40
2022-08-16T19:10:04.328Z,12.30
2022-08-16T19:12:38.477Z,11.80
2022-08-16T19:15:16.251Z,10.60
2022-08-16T19:17:46.879Z,11.00
2022-08-16T19:20:19.967Z,11.50
2022-08-16T19:23:05.611Z,11.40
2022-08-16T19:25:46.846Z,11.50
2022-08-16T19:28:51.734Z,11.70
2022-08-16T19:31:20.767Z,12.30
2022-08-16T19:36:35.657Z,11.40
2022-08-16T19:39:10.016Z,12.70
2022-08-16T19:41:43.305Z,12.50
2022-08-16T19:44:13.511Z,12.00
2022-08-16T19:46:45.365Z,12.20
2022-08-16T19:49:16.052Z,11.40
2022-08-16T19:51:47.163Z,11.20
2022-08-16T19:54:20.258Z,12.30
2022-08-16T19:59:39.293Z,11.20
2022-08-16T20:02:25.591Z,12.00
2022-08-16T20:05:07.376Z,11.90
2022-08-16T20:07:37.236Z,11.30
2022-08-16T20:10:08.827Z,12.60
2022-08-16T20:12:41.924Z,11.50
2022-08-16T20:15:17.387Z,12.50
2022-08-16T20:17:48.590Z,12.20
2022-08-16T20:20:24.027Z,12.30
2022-08-16T20:22:57.219Z,13.00
2022-08-16T20:25:30.065Z,13.50
2022-08-16T20:28:01.301Z,13.60
2022-08-16T20:30:31.550Z,13.30
2022-08-16T20:33:13.836Z,13.50
2022-08-16T20:35:44.459Z,14.00
2022-08-16T20:38:14.197Z,13.70
2022-08-16T20:40:44.414Z,13.40
2022-08-16T20:43:17.201Z,13.50
2022-08-16T20:45:47.968Z,12.90
2022-08-16T20:48:17.945Z,12.80
2022-08-16T20:50:47.717Z,13.70
2022-08-16T20:53:17.618Z,13.30
2022-08-16T20:55:47.767Z,13.90
2022-08-16T20:58:17.824Z,13.80
2022-08-16T21:00:47.594Z,13.20
2022-08-16T21:03:25.834Z,12.60
2022-08-16T21:05:59.080Z,12.90
2022-08-16T21:08:51.427Z,13.50
2022-08-16T21:11:21.102Z,14.50
2022-08-16T21:13:50.925Z,15.00
2022-08-16T21:16:24.956Z,13.10
2022-08-16T21:18:57.466Z,14.00
2022-08-16T21:21:31.888Z,12.70
2022-08-16T21:24:03.647Z,14.20
2022-08-16T21:26:34.610Z,13.50
2022-08-16T21:29:11.284Z,13.80
2022-08-16T21:31:49.878Z,14.30
2022-08-16T21:34:19.545Z,14.70
2022-08-16T21:36:49.457Z,16.00
2022-08-16T21:39:19.164Z,14.70
2022-08-16T21:41:49.016Z,14.50
2022-08-16T21:44:18.667Z,15.20
2022-08-16T21:46:48.478Z,14.50
2022-08-16T21:49:17.967Z,15.30
2022-08-16T21:51:47.669Z,14.40
2022-08-16T21:54:19.825Z,14.90
2022-08-16T21:56:49.733Z,13.90
2022-08-16T21:59:19.436Z,14.40
2022-08-16T22:01:49.334Z,13.90
2022-08-16T22:04:37.626Z,13.40
2022-08-16T22:07:09.236Z,13.80
2022-08-16T22:09:39.167Z,13.90
2022-08-16T22:12:09.888Z,13.60
2022-08-16T22:14:39.727Z,12.60
2022-08-16T22:17:09.457Z,12.80
2022-08-16T22:19:39.148Z,13.50
2022-08-16T22:22:08.907Z,13.40
2022-08-16T22:24:38.970Z,13.30
2022-08-16T22:27:08.964Z,12.60
2022-08-16T22:29:42.159Z,12.20
2022-08-16T22:32:12.396Z,13.60
2022-08-16T22:34:42.079Z,12.90
2022-08-16T22:37:11.687Z,11.90
2022-08-16T22:39:41.360Z,13.20
2022-08-16T22:42:11.988Z,12.40
2022-08-16T22:44:46.116Z,12.50
2022-08-16T22:47:16.531Z,14.20
2022-08-16T22:49:47.869Z,11.80
2022-08-16T22:52:48.788Z,11.00
2022-08-16T22:55:09.336Z,12.40
2022-08-16T22:57:39.008Z,12.30
2022-08-16T23:00:13.437Z,11.60
2022-08-16T23:03:03.167Z,10.40
2022-08-16T23:05:35.026Z,11.90
2022-08-16T23:08:06.546Z,10.60
2022-08-16T23:10:36.508Z,11.40
2022-08-16T23:13:08.477Z,10.70
2022-08-16T23:15:43.527Z,12.40
2022-08-16T23:18:15.319Z,10.90
2022-08-16T23:20:47.695Z,11.20
2022-08-16T23:23:21.990Z,12.10
2022-08-16T23:25:55.057Z,11.30
2022-08-16T23:28:27.544Z,11.30
2022-08-16T23:30:58.842Z,12.00
2022-08-16T23:33:29.183Z,12.40
2022-08-16T23:36:01.320Z,12.70
2022-08-16T23:38:38.242Z,12.40
2022-08-16T23:41:12.191Z,11.70
2022-08-16T23:43:43.775Z,13.10
2022-08-16T23:46:15.923Z,12.30
2022-08-16T23:49:55.977Z,12.40
2022-08-16T23:51:36.121Z,11.80
2022-08-16T23:54:09.194Z,11.90
2022-08-16T23:56:40.495Z,11.90
2022-08-16T23:59:10.960Z,11.50
